createdAt,value
2019-04-11T00:01:45.211Z,25.40
2019-04-11T00:03:49.585Z,25.00
2019-04-11T00:05:57.292Z,24.53
2019-04-11T00:08:05.980Z,30.33
2019-04-11T00:10:14.503Z,29.13
2019-04-11T00:12:22.209Z,23.40
2019-04-11T00:14:29.722Z,26.60
2019-04-11T00:16:37.409Z,27.93
2019-04-11T00:18:45.046Z,23.73
2019-04-11T00:20:52.834Z,26.27
2019-04-11T00:23:00.361Z,25.03
2019-04-11T00:25:09.421Z,25.80
2019-04-11T00:27:17.201Z,25.47
2019-04-11T00:29:24.716Z,26.83
2019-04-11T00:31:32.699Z,28.77
2019-04-11T00:33:40.468Z,23.50
2019-04-11T00:35:48.086Z,27.87
2019-04-11T00:37:55.604Z,29.43
2019-04-11T00:40:03.891Z,24.50
2019-04-11T00:42:12.420Z,26.60
2019-04-11T00:44:20.913Z,33.10
2019-04-11T00:46:28.683Z,30.63
2019-04-11T00:48:37.614Z,29.70
2019-04-11T00:50:45.457Z,27.47
2019-04-11T00:52:53.723Z,29.67
2019-04-11T00:55:01.340Z,28.83
2019-04-11T00:57:08.998Z,25.17
2019-04-11T00:59:16.522Z,26.83
2019-04-11T01:01:24.046Z,29.17
2019-04-11T01:03:31.529Z,23.50
2019-04-11T01:05:39.425Z,28.30
2019-04-11T01:07:47.211Z,29.80
2019-04-11T01:09:54.866Z,27.73
2019-04-11T01:12:02.691Z,29.23
2019-04-11T01:14:10.301Z,22.23
2019-04-11T01:16:43.031Z,24.00
2019-04-11T01:18:50.571Z,23.43
2019-04-11T01:20:58.035Z,23.27
2019-04-11T01:23:06.769Z,23.67
2019-04-11T01:25:14.751Z,28.47
2019-04-11T01:27:23.614Z,29.50
2019-04-11T01:29:31.452Z,29.50
2019-04-11T01:31:39.899Z,22.93
2019-04-11T01:33:48.376Z,26.40
2019-04-11T01:35:55.877Z,25.40
2019-04-11T01:38:04.055Z,24.17
2019-04-11T01:40:11.834Z,27.27
2019-04-11T01:42:19.602Z,24.70
2019-04-11T01:44:28.313Z,26.40
2019-04-11T01:46:36.134Z,24.33
2019-04-11T01:48:52.057Z,26.80
2019-04-11T01:50:59.722Z,23.70
2019-04-11T01:53:07.394Z,21.87
2019-04-11T01:55:14.991Z,24.07
2019-04-11T01:57:22.454Z,22.53
2019-04-11T01:59:31.173Z,22.57
2019-04-11T02:01:49.406Z,21.87
2019-04-11T02:04:03.690Z,25.23
2019-04-11T02:06:11.820Z,21.53
2019-04-11T02:08:19.588Z,22.90
2019-04-11T02:10:28.594Z,22.30
2019-04-11T02:12:37.349Z,21.00
2019-04-11T02:14:45.903Z,21.50
2019-04-11T02:16:53.705Z,19.40
2019-04-11T02:19:01.667Z,22.70
2019-04-11T02:21:09.435Z,22.23
2019-04-11T02:23:21.550Z,19.50
2019-04-11T02:25:48.971Z,20.27
2019-04-11T02:27:58.101Z,18.13
2019-04-11T02:30:08.592Z,19.90
2019-04-11T02:32:18.259Z,21.00
2019-04-11T02:34:25.442Z,21.37
2019-04-11T02:36:34.199Z,18.77
2019-04-11T02:38:42.180Z,25.00
2019-04-11T02:40:50.695Z,20.83
2019-04-11T02:42:59.400Z,22.27
2019-04-11T02:45:22.472Z,20.87
2019-04-11T02:47:24.078Z,23.10
2019-04-11T02:49:27.796Z,19.87
2019-04-11T02:51:36.798Z,22.87
2019-04-11T02:53:45.102Z,20.57
2019-04-11T02:55:54.296Z,19.37
2019-04-11T02:58:04.015Z,24.93
2019-04-11T03:00:13.082Z,20.97
2019-04-11T03:02:21.470Z,21.77
2019-04-11T03:04:30.950Z,21.37
2019-04-11T03:06:39.643Z,24.20
2019-04-11T03:08:48.964Z,24.90
2019-04-11T03:10:57.724Z,20.33
2019-04-11T03:13:05.588Z,22.37
2019-04-11T03:15:28.726Z,23.07
2019-04-11T03:17:28.694Z,23.33
2019-04-11T03:19:43.962Z,23.70
2019-04-11T03:21:44.431Z,23.00
2019-04-11T03:23:51.372Z,22.23
2019-04-11T03:26:00.637Z,26.17
2019-04-11T03:28:13.735Z,32.53
2019-04-11T03:30:24.753Z,24.60
2019-04-11T03:35:35.004Z,24.77
2019-04-11T03:39:15.167Z,19.17
2019-04-11T03:41:25.291Z,22.63
2019-04-11T03:43:28.154Z,23.50
2019-04-11T03:45:43.521Z,23.47
2019-04-11T03:47:44.846Z,26.97
2019-04-11T03:49:51.070Z,24.60
2019-04-11T03:51:53.152Z,25.73
2019-04-11T03:54:02.186Z,23.43
2019-04-11T03:56:09.904Z,21.40
2019-04-11T03:58:19.661Z,22.93
2019-04-11T04:00:33.559Z,22.70
2019-04-11T04:02:37.241Z,21.17
2019-04-11T04:04:46.573Z,21.13
2019-04-11T04:06:55.209Z,17.97
2019-04-11T04:09:04.252Z,20.90
2019-04-11T04:11:27.053Z,21.00
2019-04-11T04:13:36.613Z,26.23
2019-04-11T04:16:11.984Z,22.63
2019-04-11T04:18:29.908Z,20.17
2019-04-11T04:20:59.699Z,24.40
2019-04-11T04:23:20.883Z,19.90
2019-04-11T04:25:29.116Z,25.77
2019-04-11T04:27:36.659Z,18.13
2019-04-11T04:29:49.013Z,19.63
2019-04-11T04:31:54.989Z,20.73
2019-04-11T04:34:03.874Z,19.67
2019-04-11T04:36:13.847Z,21.00
2019-04-11T04:38:21.200Z,21.80
2019-04-11T04:40:49.537Z,19.30
2019-04-11T04:42:47.710Z,24.43
2019-04-11T04:44:50.986Z,22.87
2019-04-11T04:47:13.589Z,22.23
2019-04-11T04:49:11.187Z,26.73
2019-04-11T04:51:20.566Z,22.57
2019-04-11T04:53:28.489Z,24.20
2019-04-11T04:55:36.804Z,23.27
2019-04-11T04:57:44.985Z,21.10
2019-04-11T04:59:53.205Z,27.03
2019-04-11T05:02:01.765Z,25.10
2019-04-11T05:04:11.339Z,24.30
2019-04-11T05:06:20.493Z,20.93
2019-04-11T05:08:28.226Z,17.63
2019-04-11T05:10:36.006Z,25.03
2019-04-11T05:12:43.918Z,20.73
2019-04-11T05:14:51.992Z,20.57
2019-04-11T05:17:00.419Z,22.60
2019-04-11T05:19:08.532Z,23.13
2019-04-11T05:21:17.058Z,25.63
2019-04-11T05:23:25.496Z,23.57
2019-04-11T05:25:32.986Z,24.93
2019-04-11T05:27:40.395Z,22.43
2019-04-11T05:29:47.777Z,21.67
2019-04-11T05:31:55.250Z,21.13
2019-04-11T05:34:03.502Z,20.77
2019-04-11T05:36:12.222Z,18.43
2019-04-11T05:38:20.731Z,16.83
2019-04-11T05:40:28.446Z,27.63
2019-04-11T05:42:35.865Z,21.40
2019-04-11T05:44:43.298Z,21.03
2019-04-11T05:46:56.189Z,18.37
2019-04-11T05:49:09.277Z,21.23
2019-04-11T05:51:21.190Z,24.20
2019-04-11T05:53:25.889Z,23.93
2019-04-11T05:55:41.416Z,19.97
2019-04-11T05:57:48.723Z,22.67
2019-04-11T05:59:57.669Z,20.87
2019-04-11T06:02:13.013Z,22.40
2019-04-11T06:04:28.602Z,21.33
2019-04-11T06:06:58.906Z,20.47
2019-04-11T06:09:13.440Z,16.87
2019-04-11T06:11:28.660Z,20.83
2019-04-11T06:13:53.482Z,19.13
2019-04-11T06:16:02.843Z,21.40
2019-04-11T06:18:25.957Z,21.07
2019-04-11T06:20:49.915Z,21.20
2019-04-11T06:23:08.164Z,19.77
2019-04-11T06:25:28.028Z,20.70
2019-04-11T06:27:57.916Z,17.63
2019-04-11T06:30:28.541Z,19.63
2019-04-11T06:32:54.363Z,19.40
2019-04-11T06:35:06.580Z,21.10
2019-04-11T06:37:41.635Z,18.80
2019-04-11T06:40:02.567Z,16.73
2019-04-11T06:42:40.614Z,20.07
2019-04-11T06:45:01.966Z,19.03
2019-04-11T06:47:27.160Z,18.83
2019-04-11T06:49:53.010Z,17.90
2019-04-11T06:52:02.473Z,21.25
2019-04-11T06:54:23.315Z,18.77
2019-04-11T06:56:41.149Z,16.53
2019-04-11T06:58:53.627Z,18.53
2019-04-11T07:01:05.495Z,18.17
2019-04-11T07:03:22.254Z,18.97
2019-04-11T07:05:24.722Z,21.90
2019-04-11T07:07:35.680Z,17.17
2019-04-11T07:09:49.254Z,21.10
2019-04-11T07:12:01.415Z,25.40
2019-04-11T07:14:26.970Z,20.17
2019-04-11T07:16:36.180Z,18.50
2019-04-11T07:18:53.312Z,21.37
2019-04-11T07:21:03.113Z,21.00
2019-04-11T07:23:28.511Z,16.10
2019-04-11T07:25:55.897Z,19.93
2019-04-11T07:28:11.014Z,22.13
2019-04-11T07:30:37.499Z,20.07
2019-04-11T07:32:45.180Z,16.33
2019-04-11T07:35:10.962Z,18.87
2019-04-11T07:37:32.663Z,15.40
2019-04-11T07:39:58.541Z,14.47
2019-04-11T07:42:23.904Z,15.97
2019-04-11T07:44:32.279Z,17.83
2019-04-11T07:46:55.935Z,13.93
2019-04-11T07:49:08.141Z,15.53
2019-04-11T07:51:34.744Z,17.30
2019-04-11T07:53:45.969Z,17.00
2019-04-11T07:55:55.433Z,15.27
2019-04-11T07:58:21.695Z,14.23
2019-04-11T08:00:52.882Z,13.20
2019-04-11T08:03:25.555Z,15.87
2019-04-11T08:06:03.810Z,15.93
2019-04-11T08:08:32.851Z,11.67
2019-04-11T08:10:45.749Z,12.43
2019-04-11T08:12:54.067Z,14.07
2019-04-11T08:15:38.491Z,20.57
2019-04-11T08:17:46.700Z,12.10
2019-04-11T08:20:25.652Z,13.53
2019-04-11T08:22:39.219Z,15.73
2019-04-11T08:24:56.498Z,19.17
2019-04-11T08:27:32.070Z,17.30
2019-04-11T08:29:39.606Z,17.07
2019-04-11T08:32:12.034Z,12.20
2019-04-11T08:34:20.681Z,13.67
2019-04-11T08:36:50.865Z,14.43
2019-04-11T08:38:58.604Z,14.27
2019-04-11T08:41:13.512Z,16.83
2019-04-11T08:43:27.049Z,14.23
2019-04-11T08:45:35.308Z,10.73
2019-04-11T08:47:49.215Z,13.57
2019-04-11T08:49:58.438Z,10.47
2019-04-11T08:52:11.850Z,13.50
2019-04-11T08:54:53.513Z,15.43
2019-04-11T08:57:01.316Z,12.87
2019-04-11T08:59:35.658Z,14.57
2019-04-11T09:01:44.316Z,12.70
2019-04-11T09:04:15.623Z,10.73
2019-04-11T09:06:30.506Z,11.43
2019-04-11T09:08:59.802Z,13.20
2019-04-11T09:11:26.105Z,12.80
2019-04-11T09:13:56.068Z,12.43
2019-04-11T09:16:21.576Z,15.63
2019-04-11T09:18:30.240Z,18.57
2019-04-11T09:21:00.123Z,12.57
2019-04-11T09:23:13.482Z,14.50
2019-04-11T09:25:43.470Z,11.30
2019-04-11T09:28:11.265Z,13.40
2019-04-11T09:30:28.612Z,11.37
2019-04-11T09:33:01.383Z,13.40
2019-04-11T09:35:18.535Z,9.80
2019-04-11T09:37:36.022Z,16.50
2019-04-11T09:40:15.337Z,12.20
2019-04-11T09:42:43.005Z,10.07
2019-04-11T09:44:59.377Z,12.17
2019-04-11T09:47:38.391Z,12.33
2019-04-11T09:49:51.589Z,15.97
2019-04-11T09:52:07.336Z,11.20
2019-04-11T09:54:26.187Z,14.07
2019-04-11T09:56:56.015Z,10.93
2019-04-11T09:59:09.023Z,12.00
2019-04-11T10:01:35.444Z,13.00
2019-04-11T10:03:45.033Z,13.90
2019-04-11T10:06:26.422Z,9.17
2019-04-11T10:08:59.740Z,16.13
2019-04-11T10:11:32.654Z,15.10
2019-04-11T10:14:01.785Z,12.67
2019-04-11T10:16:31.807Z,9.73
2019-04-11T10:19:01.290Z,11.80
2019-04-11T10:21:09.018Z,10.73
2019-04-11T10:23:45.126Z,9.77
2019-04-11T10:25:56.401Z,12.00
2019-04-11T10:28:21.819Z,9.93
2019-04-11T10:30:48.256Z,12.07
2019-04-11T10:32:59.419Z,12.77
2019-04-11T10:35:24.377Z,10.57
2019-04-11T10:37:32.351Z,12.47
2019-04-11T10:40:05.886Z,11.10
2019-04-11T10:42:14.864Z,11.70
2019-04-11T10:44:28.436Z,9.60
2019-04-11T10:46:49.509Z,10.47
2019-04-11T10:49:05.394Z,10.30
2019-04-11T10:51:30.361Z,9.40
2019-04-11T10:53:39.436Z,10.77
2019-04-11T10:56:09.031Z,11.90
2019-04-11T10:58:22.546Z,15.20
2019-04-11T11:00:40.396Z,10.77
2019-04-11T11:03:09.616Z,12.17
2019-04-11T11:05:19.140Z,10.93
2019-04-11T11:07:30.779Z,11.20
2019-04-11T11:10:03.518Z,15.17
2019-04-11T11:12:25.248Z,13.80
2019-04-11T11:14:55.382Z,11.17
2019-04-11T11:17:10.774Z,16.63
2019-04-11T11:19:50.175Z,16.00
2019-04-11T11:21:45.165Z,13.20
2019-04-11T11:24:11.736Z,12.47
2019-04-11T11:26:26.249Z,14.43
2019-04-11T11:28:36.753Z,10.73
2019-04-11T11:31:03.198Z,11.33
2019-04-11T11:33:11.036Z,14.37
2019-04-11T11:35:50.047Z,10.43
2019-04-11T11:38:06.015Z,12.37
2019-04-11T11:40:32.049Z,10.90
2019-04-11T11:42:58.786Z,12.30
2019-04-11T11:45:14.411Z,17.23
2019-04-11T11:47:41.448Z,11.60
2019-04-11T11:49:57.339Z,10.70
2019-04-11T11:52:35.042Z,15.90
2019-04-11T11:54:46.678Z,12.40
2019-04-11T11:56:56.439Z,12.67
2019-04-11T11:59:25.121Z,17.03
2019-04-11T12:01:32.928Z,13.23
2019-04-11T12:04:01.288Z,16.27
2019-04-11T12:06:09.541Z,12.93
2019-04-11T12:08:54.257Z,12.80
2019-04-11T12:11:05.951Z,12.40
2019-04-11T12:13:32.656Z,18.47
2019-04-11T12:16:03.579Z,8.67
2019-04-11T12:18:49.529Z,12.73
2019-04-11T12:20:59.326Z,11.57
2019-04-11T12:23:15.082Z,9.87
2019-04-11T12:25:25.411Z,14.20
2019-04-11T12:28:00.773Z,13.83
2019-04-11T12:30:30.542Z,11.07
2019-04-11T12:32:37.075Z,9.13
2019-04-11T12:35:00.354Z,10.60
2019-04-11T12:37:12.549Z,8.47
2019-04-11T12:39:47.885Z,11.93
2019-04-11T12:41:57.983Z,12.57
2019-04-11T12:44:23.324Z,10.03
2019-04-11T12:46:48.404Z,9.20
2019-04-11T12:49:00.317Z,11.40
2019-04-11T12:51:39.002Z,7.93
2019-04-11T12:53:48.178Z,10.07
2019-04-11T12:56:20.403Z,11.70
2019-04-11T12:58:30.593Z,12.07
2019-04-11T13:00:53.248Z,15.40
2019-04-11T13:03:18.992Z,9.30
2019-04-11T13:05:26.606Z,11.00
2019-04-11T13:08:05.100Z,11.97
2019-04-11T13:10:25.640Z,9.87
2019-04-11T13:12:54.753Z,12.67
2019-04-11T13:15:27.337Z,10.07
2019-04-11T13:17:37.531Z,9.63
2019-04-11T13:20:04.903Z,13.43
2019-04-11T13:22:17.999Z,9.50
2019-04-11T13:24:53.394Z,8.47
2019-04-11T13:27:12.801Z,9.10
2019-04-11T13:29:45.011Z,12.13
2019-04-11T13:32:10.221Z,11.07
2019-04-11T13:34:17.799Z,17.87
2019-04-11T13:36:50.070Z,12.13
2019-04-11T13:38:57.609Z,12.93
2019-04-11T13:41:42.237Z,13.57
2019-04-11T13:44:06.883Z,10.47
2019-04-11T13:46:25.352Z,9.07
2019-04-11T13:49:01.241Z,7.87
2019-04-11T13:51:14.203Z,18.87
2019-04-11T13:53:39.432Z,11.73
2019-04-11T13:55:46.823Z,10.13
2019-04-11T13:58:13.479Z,12.27
2019-04-11T14:00:41.794Z,14.53
2019-04-11T14:03:11.010Z,10.10
2019-04-11T14:05:18.406Z,12.77
2019-04-11T14:07:26.001Z,11.20
2019-04-11T14:09:41.169Z,12.20
2019-04-11T14:11:50.312Z,13.07
2019-04-11T14:13:57.794Z,10.30
2019-04-11T14:16:10.154Z,18.13
2019-04-11T14:18:29.645Z,16.87
2019-04-11T14:20:49.331Z,10.10
2019-04-11T14:23:18.438Z,10.90
2019-04-11T14:25:53.657Z,11.53
2019-04-11T14:28:02.158Z,11.97
2019-04-11T14:30:35.089Z,10.63
2019-04-11T14:32:45.624Z,13.07
2019-04-11T14:35:10.649Z,11.63
2019-04-11T14:37:38.393Z,9.80
2019-04-11T14:39:46.912Z,10.10
2019-04-11T14:42:16.884Z,15.23
2019-04-11T14:44:24.841Z,15.23
2019-04-11T14:47:09.405Z,10.30
2019-04-11T14:49:18.108Z,10.23
2019-04-11T14:51:36.498Z,13.17
2019-04-11T14:54:18.271Z,12.53
2019-04-11T14:56:27.023Z,12.80
2019-04-11T14:58:53.856Z,12.97
2019-04-11T15:01:01.988Z,13.20
2019-04-11T15:03:34.435Z,12.20
2019-04-11T15:05:46.363Z,11.87
2019-04-11T15:07:54.094Z,12.27
2019-04-11T15:10:19.093Z,14.47
2019-04-11T15:12:27.896Z,15.87
2019-04-11T15:14:52.816Z,11.67
2019-04-11T15:17:19.038Z,14.07
2019-04-11T15:19:26.602Z,14.97
2019-04-11T15:22:11.190Z,11.07
2019-04-11T15:24:19.903Z,12.77
2019-04-11T15:26:54.957Z,13.27
2019-04-11T15:29:08.976Z,13.00
2019-04-11T15:31:39.452Z,21.37
2019-04-11T15:34:08.776Z,15.20
2019-04-11T15:36:17.612Z,18.10
2019-04-11T15:38:43.743Z,16.67
2019-04-11T15:40:54.403Z,12.00
2019-04-11T15:43:32.745Z,16.70
2019-04-11T15:46:01.784Z,10.83
2019-04-11T15:48:43.410Z,13.30
2019-04-11T15:51:18.435Z,13.47
2019-04-11T15:53:34.822Z,16.37
2019-04-11T15:56:01.104Z,12.50
2019-04-11T15:58:12.524Z,17.30
2019-04-11T16:00:36.991Z,13.80
2019-04-11T16:02:59.202Z,14.63
2019-04-11T16:05:24.237Z,15.07
2019-04-11T16:07:50.341Z,13.80
2019-04-11T16:09:57.809Z,18.90
2019-04-11T16:12:18.582Z,14.50
2019-04-11T16:14:37.773Z,15.60
2019-04-11T16:16:52.168Z,18.30
2019-04-11T16:19:17.722Z,18.73
2019-04-11T16:21:33.965Z,15.63
2019-04-11T16:23:58.482Z,14.43
2019-04-11T16:26:09.896Z,13.40
2019-04-11T16:28:55.847Z,15.87
2019-04-11T16:31:03.493Z,16.37
2019-04-11T16:33:28.610Z,16.70
2019-04-11T16:35:58.053Z,13.30
2019-04-11T16:38:07.060Z,13.17
2019-04-11T16:40:53.439Z,13.30
2019-04-11T16:43:05.006Z,16.33
2019-04-11T16:45:40.845Z,26.63
2019-04-11T16:48:02.083Z,10.97
2019-04-11T16:50:10.021Z,11.13
2019-04-11T16:52:17.686Z,11.97
2019-04-11T16:54:25.069Z,13.13
2019-04-11T16:56:32.672Z,14.83
2019-04-11T16:58:40.164Z,11.57
2019-04-11T17:00:52.089Z,14.67
2019-04-11T17:02:56.897Z,14.20
2019-04-11T17:05:05.044Z,13.60
2019-04-11T17:07:31.330Z,12.80
2019-04-11T17:09:44.926Z,13.87
2019-04-11T17:11:52.359Z,14.13
2019-04-11T17:14:00.606Z,14.97
2019-04-11T17:16:12.092Z,10.63
2019-04-11T17:18:19.809Z,12.70
2019-04-11T17:20:27.970Z,11.37
2019-04-11T17:22:35.602Z,16.47
2019-04-11T17:24:43.236Z,12.63
2019-04-11T17:26:52.818Z,12.67
2019-04-11T17:28:59.886Z,18.70
2019-04-11T17:31:07.626Z,21.37
2019-04-11T17:33:15.132Z,12.80
2019-04-11T17:35:22.730Z,16.53
2019-04-11T17:37:30.993Z,23.30
2019-04-11T17:39:39.377Z,11.57
2019-04-11T17:41:46.779Z,16.97
2019-04-11T17:43:54.272Z,17.00
2019-04-11T17:46:01.710Z,15.83
2019-04-11T17:48:10.295Z,13.87
2019-04-11T17:50:18.006Z,14.17
2019-04-11T17:52:25.498Z,15.53
2019-04-11T17:54:32.978Z,14.10
2019-04-11T17:56:40.497Z,19.30
2019-04-11T17:58:48.849Z,14.40
2019-04-11T18:01:00.526Z,16.10
2019-04-11T18:03:11.797Z,14.67
2019-04-11T18:05:17.707Z,14.50
2019-04-11T18:07:26.321Z,15.83
2019-04-11T18:09:34.184Z,15.10
2019-04-11T18:11:42.167Z,15.33
2019-04-11T18:13:49.703Z,12.87
2019-04-11T18:16:00.903Z,15.40
2019-04-11T18:18:07.887Z,14.67
2019-04-11T18:20:16.057Z,14.60
2019-04-11T18:22:23.934Z,17.10
2019-04-11T18:24:31.381Z,16.20
2019-04-11T18:26:39.363Z,20.60
2019-04-11T18:28:47.235Z,21.47
2019-04-11T18:30:54.868Z,17.77
2019-04-11T18:33:04.110Z,21.10
2019-04-11T18:35:12.467Z,17.87
2019-04-11T18:37:20.111Z,20.23
2019-04-11T18:39:27.711Z,23.07
2019-04-11T18:41:35.873Z,21.33
2019-04-11T18:43:46.796Z,19.93
2019-04-11T18:45:53.605Z,17.50
2019-04-11T18:48:01.077Z,24.17
2019-04-11T18:50:11.773Z,20.67
2019-04-11T18:52:20.223Z,21.60
2019-04-11T18:54:28.979Z,24.13
2019-04-11T18:56:38.052Z,25.53
2019-04-11T18:58:45.913Z,24.03
2019-04-11T19:00:53.907Z,21.40
2019-04-11T19:03:01.486Z,22.37
2019-04-11T19:05:10.878Z,24.30
2019-04-11T19:07:27.620Z,23.77
2019-04-11T19:09:29.666Z,27.37
2019-04-11T19:11:37.265Z,27.80
2019-04-11T19:13:47.030Z,34.90
2019-04-11T19:15:54.187Z,31.77
2019-04-11T19:18:06.783Z,24.33
2019-04-11T19:20:11.293Z,24.30
2019-04-11T19:22:20.826Z,18.40
2019-04-11T19:24:35.488Z,22.20
2019-04-11T19:26:37.469Z,26.43
2019-04-11T19:28:46.358Z,21.23
2019-04-11T19:30:56.116Z,21.70
2019-04-11T19:33:03.100Z,25.03
2019-04-11T19:35:10.983Z,23.17
2019-04-11T19:37:18.670Z,21.73
2019-04-11T19:39:30.327Z,22.13
2019-04-11T19:41:38.316Z,23.83
2019-04-11T19:43:48.722Z,22.73
2019-04-11T19:45:55.513Z,20.10
2019-04-11T19:48:03.073Z,24.83
2019-04-11T19:50:11.557Z,22.50
2019-04-11T19:52:19.404Z,19.83
2019-04-11T19:54:26.884Z,18.17
2019-04-11T19:56:39.599Z,24.67
2019-04-11T19:58:47.437Z,27.70
2019-04-11T20:00:55.562Z,25.13
2019-04-11T20:03:03.233Z,32.03
2019-04-11T20:05:12.339Z,40.77
2019-04-11T20:07:20.558Z,32.43
2019-04-11T20:09:29.349Z,30.77
2019-04-11T20:11:36.939Z,33.00
2019-04-11T20:13:44.431Z,34.93
2019-04-11T20:15:51.973Z,32.10
2019-04-11T20:17:59.537Z,39.80
2019-04-11T20:20:07.896Z,35.50
2019-04-11T20:22:15.500Z,44.10
2019-04-11T20:24:23.113Z,46.43
2019-04-11T20:26:30.655Z,43.57
2019-04-11T20:28:38.260Z,38.47
2019-04-11T20:30:46.029Z,41.17
2019-04-11T20:32:53.651Z,38.57
2019-04-11T20:35:01.171Z,38.30
2019-04-11T20:37:12.522Z,47.10
2019-04-11T20:39:18.161Z,48.13
2019-04-11T20:41:25.668Z,44.57
2019-04-11T20:43:33.129Z,44.27
2019-04-11T20:45:41.631Z,48.80
2019-04-11T20:47:49.169Z,41.80
2019-04-11T20:49:56.645Z,37.20
2019-04-11T20:52:04.806Z,63.70
2019-04-11T20:54:12.423Z,62.67
2019-04-11T20:56:24.325Z,56.60
2019-04-11T20:58:28.966Z,49.20
2019-04-11T21:00:49.221Z,48.03
2019-04-11T21:02:46.634Z,48.13
2019-04-11T21:04:54.461Z,52.53
2019-04-11T21:07:02.623Z,44.43
2019-04-11T21:09:12.686Z,49.20
2019-04-11T21:11:20.402Z,49.20
2019-04-11T21:13:27.827Z,47.90
2019-04-11T21:15:35.298Z,41.17
2019-04-11T21:17:42.908Z,45.70
2019-04-11T21:19:50.997Z,44.43
2019-04-11T21:22:00.142Z,41.73
2019-04-11T21:24:07.530Z,37.50
2019-04-11T21:26:15.907Z,39.07
2019-04-11T21:28:23.367Z,47.17
2019-04-11T21:30:31.229Z,55.40
2019-04-11T21:32:38.630Z,44.93
2019-04-11T21:34:46.116Z,37.00
2019-04-11T21:36:53.485Z,42.77
2019-04-11T21:39:03.569Z,39.10
2019-04-11T21:41:10.017Z,39.87
2019-04-11T21:43:17.405Z,39.90
2019-04-11T21:45:24.843Z,38.10
2019-04-11T21:47:32.219Z,32.90
2019-04-11T21:49:39.680Z,41.20
2019-04-11T21:51:47.350Z,42.27
2019-04-11T21:53:54.805Z,40.80
2019-04-11T21:56:02.276Z,33.13
2019-04-11T21:58:09.713Z,41.53
2019-04-11T22:00:27.703Z,36.27
2019-04-11T22:02:35.322Z,77.20
2019-04-11T22:04:42.684Z,111.17
2019-04-11T22:06:50.173Z,138.97
2019-04-11T22:08:57.729Z,152.30
2019-04-11T22:11:05.186Z,90.77
2019-04-11T22:13:12.614Z,66.20
2019-04-11T22:15:19.951Z,75.50
2019-04-11T22:17:27.305Z,68.20
2019-04-11T22:19:34.661Z,50.93
2019-04-11T22:21:45.025Z,40.37
2019-04-11T22:23:51.199Z,37.27
2019-04-11T22:25:58.599Z,37.47
2019-04-11T22:28:05.998Z,35.30
2019-04-11T22:30:15.553Z,40.00
2019-04-11T22:32:23.768Z,40.17
2019-04-11T22:34:44.065Z,35.77
2019-04-11T22:36:51.372Z,37.47
2019-04-11T22:39:01.006Z,33.03
2019-04-11T22:41:07.901Z,31.23
2019-04-11T22:43:24.088Z,25.37
2019-04-11T22:45:24.372Z,28.37
2019-04-11T22:47:31.877Z,24.00
2019-04-11T22:49:40.006Z,28.10
2019-04-11T22:51:47.514Z,25.43
2019-04-11T22:54:00.351Z,33.00
2019-04-11T22:56:04.098Z,23.07
2019-04-11T22:58:13.993Z,23.40
2019-04-11T23:00:20.687Z,21.60
2019-04-11T23:02:47.373Z,24.33
2019-04-11T23:04:54.674Z,22.93
2019-04-11T23:07:02.057Z,26.63
2019-04-11T23:09:09.806Z,24.93
2019-04-11T23:11:17.203Z,25.47
2019-04-11T23:13:24.673Z,26.27
2019-04-11T23:15:32.091Z,25.47
2019-04-11T23:17:41.784Z,28.93
2019-04-11T23:19:48.535Z,25.50
2019-04-11T23:21:55.866Z,28.30
2019-04-11T23:24:11.496Z,27.37
2019-04-11T23:26:12.323Z,25.43
2019-04-11T23:28:19.712Z,27.33
2019-04-11T23:30:27.109Z,28.93
2019-04-11T23:32:34.443Z,27.40
2019-04-11T23:34:41.811Z,28.30
2019-04-11T23:36:51.302Z,27.57
2019-04-11T23:38:58.357Z,31.03
2019-04-11T23:41:05.743Z,28.03
2019-04-11T23:43:15.252Z,26.40
2019-04-11T23:45:25.155Z,30.73
2019-04-11T23:47:32.546Z,27.53
2019-04-11T23:49:39.927Z,26.33
2019-04-11T23:51:47.364Z,26.23
2019-04-11T23:53:59.030Z,26.90
2019-04-11T23:56:03.785Z,25.67
2019-04-11T23:58:11.219Z,24.23
